MCF1TR LIPZ-LJLJ
Flight info
| Callsign | MCF1TR |
|---|---|
| Flight time | 0h 25m |
| Altitude | 16000 |
| Route | ROSKA M859 BARPI/N0382F150 DCT VIBAD VIBAD1R |
| Aircraft | A320/M-SDE3FGHIRWY/LB1 |
Departure
| Time | 2026-05-06 21:30 |
|---|---|
| Airport | Venice Marco Polo Airport (LIPZ) |
Arrival
| Time | 2026-05-06 21:55 |
|---|---|
| Airport | Ljubljana Jože Pučnik Airport (LJLJ) |
| Time | Latitude | Longitude | Altitude | Speed | Heading |
|---|---|---|---|---|---|
| 2026-05-06 21:04 | 45.50366 | 12.34168 | 16 ft | 0 kts | 290° |
| 2026-05-06 21:18 | 45.50365 | 12.34174 | 16 ft | 3 kts | 290° |
| 2026-05-06 21:18 | 45.50355 | 12.34210 | 17 ft | 4 kts | 290° |
| 2026-05-06 21:18 | 45.50346 | 12.34247 | 19 ft | 4 kts | 290° |
| 2026-05-06 21:18 | 45.50337 | 12.34283 | 16 ft | 3 kts | 290° |
| 2026-05-06 21:19 | 45.50336 | 12.34288 | 16 ft | 0 kts | 290° |
| 2026-05-06 21:21 | 45.50335 | 12.34283 | 16 ft | 3 kts | 273° |
| 2026-05-06 21:21 | 45.50309 | 12.34276 | 16 ft | 7 kts | 172° |
| 2026-05-06 21:21 | 45.50260 | 12.34293 | 16 ft | 6 kts | 147° |
| 2026-05-06 21:22 | 45.50239 | 12.34339 | 18 ft | 7 kts | 124° |
| 2026-05-06 21:22 | 45.50183 | 12.34363 | 16 ft | 9 kts | 179° |
| 2026-05-06 21:22 | 45.50126 | 12.34335 | 15 ft | 9 kts | 214° |
| 2026-05-06 21:22 | 45.50076 | 12.34276 | 15 ft | 13 kts | 222° |
| 2026-05-06 21:23 | 45.49999 | 12.34177 | 14 ft | 15 kts | 222° |
| 2026-05-06 21:23 | 45.49923 | 12.34080 | 14 ft | 14 kts | 222° |
| 2026-05-06 21:23 | 45.49855 | 12.33992 | 16 ft | 15 kts | 222° |
| 2026-05-06 21:23 | 45.49762 | 12.33873 | 15 ft | 17 kts | 222° |
| 2026-05-06 21:24 | 45.49679 | 12.33766 | 17 ft | 15 kts | 222° |
| 2026-05-06 21:24 | 45.49605 | 12.33672 | 16 ft | 14 kts | 222° |
| 2026-05-06 21:24 | 45.49537 | 12.33596 | 17 ft | 11 kts | 193° |
| 2026-05-06 21:24 | 45.49506 | 12.33610 | 17 ft | 0 kts | 144° |
| 2026-05-06 21:27 | 45.49505 | 12.33611 | 17 ft | 0 kts | 144° |
| 2026-05-06 21:27 | 45.49469 | 12.33662 | 16 ft | 13 kts | 134° |
| 2026-05-06 21:27 | 45.49423 | 12.33754 | 15 ft | 10 kts | 100° |
| 2026-05-06 21:28 | 45.49448 | 12.33817 | 15 ft | 0 kts | 41° |
| 2026-05-06 21:29 | 45.49454 | 12.33825 | 15 ft | 8 kts | 41° |
| 2026-05-06 21:29 | 45.49673 | 12.34109 | 13 ft | 80 kts | 42° |
| 2026-05-06 21:29 | 45.50249 | 12.34848 | 15 ft | 140 kts | 42° |
| 2026-05-06 21:29 | 45.51042 | 12.35892 | 406 ft | 155 kts | 45° |
| 2026-05-06 21:30 | 45.51806 | 12.36970 | 1159 ft | 154 kts | 44° |
| 2026-05-06 21:30 | 45.52587 | 12.38035 | 1844 ft | 158 kts | 43° |
| 2026-05-06 21:30 | 45.53355 | 12.39283 | 2221 ft | 179 kts | 64° |
| 2026-05-06 21:30 | 45.53637 | 12.41092 | 2557 ft | 199 kts | 96° |
| 2026-05-06 21:31 | 45.53432 | 12.43142 | 2995 ft | 216 kts | 101° |
| 2026-05-06 21:31 | 45.53200 | 12.45267 | 3808 ft | 218 kts | 101° |
| 2026-05-06 21:31 | 45.52970 | 12.47414 | 4659 ft | 220 kts | 101° |
| 2026-05-06 21:31 | 45.52744 | 12.49583 | 5480 ft | 222 kts | 101° |
| 2026-05-06 21:32 | 45.52518 | 12.51775 | 6298 ft | 225 kts | 101° |
| 2026-05-06 21:32 | 45.51346 | 12.55889 | 7578 ft | 237 kts | 135° |
| 2026-05-06 21:32 | 45.50168 | 12.57682 | 7978 ft | 260 kts | 138° |
| 2026-05-06 21:33 | 45.48874 | 12.59625 | 8515 ft | 277 kts | 137° |
| 2026-05-06 21:33 | 45.47535 | 12.61648 | 9353 ft | 284 kts | 138° |
| 2026-05-06 21:33 | 45.46170 | 12.63714 | 10146 ft | 292 kts | 138° |
| 2026-05-06 21:33 | 45.44720 | 12.65908 | 10480 ft | 316 kts | 138° |
| 2026-05-06 21:34 | 45.43162 | 12.68272 | 10757 ft | 340 kts | 137° |
| 2026-05-06 21:34 | 45.41494 | 12.70808 | 10954 ft | 363 kts | 137° |
| 2026-05-06 21:34 | 45.39715 | 12.73517 | 11177 ft | 383 kts | 137° |
| 2026-05-06 21:34 | 45.37877 | 12.76322 | 11726 ft | 391 kts | 137° |
| 2026-05-06 21:35 | 45.36078 | 12.79260 | 12393 ft | 399 kts | 130° |
| 2026-05-06 21:35 | 45.34744 | 12.82769 | 13063 ft | 411 kts | 115° |
| 2026-05-06 21:35 | 45.34087 | 12.86768 | 13691 ft | 423 kts | 99° |
| 2026-05-06 21:35 | 45.34208 | 12.90986 | 14255 ft | 433 kts | 82° |
| 2026-05-06 21:36 | 45.35153 | 12.95076 | 14818 ft | 441 kts | 65° |
| 2026-05-06 21:36 | 45.36688 | 12.98880 | 15385 ft | 445 kts | 60° |
| 2026-05-06 21:36 | 45.38275 | 13.02680 | 15932 ft | 448 kts | 60° |
| 2026-05-06 21:36 | 45.39875 | 13.06510 | 16488 ft | 451 kts | 60° |
| 2026-05-06 21:37 | 45.41481 | 13.10363 | 16851 ft | 454 kts | 60° |
| 2026-05-06 21:37 | 45.43090 | 13.14232 | 16928 ft | 454 kts | 61° |
| 2026-05-06 21:37 | 45.44174 | 13.16841 | 16938 ft | 454 kts | 61° |
| 2026-05-06 21:37 | 45.46296 | 13.21982 | 16944 ft | 454 kts | 61° |
| 2026-05-06 21:38 | 45.47374 | 13.24608 | 16943 ft | 454 kts | 61° |
| 2026-05-06 21:38 | 45.48966 | 13.28487 | 16940 ft | 454 kts | 61° |
| 2026-05-06 21:38 | 45.50554 | 13.32373 | 16943 ft | 454 kts | 61° |
| 2026-05-06 21:38 | 45.52140 | 13.36268 | 16934 ft | 453 kts | 61° |
| 2026-05-06 21:39 | 45.53715 | 13.40145 | 16940 ft | 452 kts | 61° |
| 2026-05-06 21:39 | 45.55284 | 13.44021 | 16950 ft | 452 kts | 62° |
| 2026-05-06 21:39 | 45.56848 | 13.47912 | 16952 ft | 451 kts | 62° |
| 2026-05-06 21:39 | 45.58402 | 13.51806 | 16940 ft | 452 kts | 62° |
| 2026-05-06 21:40 | 45.59902 | 13.55751 | 16947 ft | 452 kts | 64° |
| 2026-05-06 21:40 | 45.61322 | 13.59756 | 16942 ft | 452 kts | 65° |
| 2026-05-06 21:40 | 45.62691 | 13.63803 | 16959 ft | 452 kts | 66° |
| 2026-05-06 21:40 | 45.64034 | 13.67845 | 16950 ft | 452 kts | 66° |
| 2026-05-06 21:41 | 45.65382 | 13.71892 | 16944 ft | 452 kts | 66° |
| 2026-05-06 21:41 | 45.66748 | 13.75944 | 16947 ft | 452 kts | 66° |
| 2026-05-06 21:41 | 45.68128 | 13.79987 | 16948 ft | 452 kts | 65° |
| 2026-05-06 21:41 | 45.69511 | 13.84003 | 16936 ft | 446 kts | 65° |
| 2026-05-06 21:42 | 45.70839 | 13.87842 | 16853 ft | 427 kts | 65° |
| 2026-05-06 21:42 | 45.72146 | 13.91624 | 16736 ft | 411 kts | 65° |
| 2026-05-06 21:42 | 45.73385 | 13.95224 | 16605 ft | 397 kts | 66° |
| 2026-05-06 21:42 | 45.74582 | 13.98721 | 16478 ft | 385 kts | 66° |
| 2026-05-06 21:43 | 45.75737 | 14.02112 | 16281 ft | 374 kts | 66° |
| 2026-05-06 21:43 | 45.76871 | 14.05453 | 15920 ft | 371 kts | 66° |
| 2026-05-06 21:43 | 45.77993 | 14.08758 | 15484 ft | 369 kts | 66° |
| 2026-05-06 21:43 | 45.79110 | 14.12054 | 15082 ft | 367 kts | 66° |
| 2026-05-06 21:44 | 45.80223 | 14.15335 | 14693 ft | 365 kts | 66° |
| 2026-05-06 21:44 | 45.81330 | 14.18602 | 14312 ft | 364 kts | 66° |
| 2026-05-06 21:44 | 45.82432 | 14.21857 | 13908 ft | 362 kts | 66° |
| 2026-05-06 21:44 | 45.83528 | 14.25102 | 13484 ft | 361 kts | 66° |
| 2026-05-06 21:45 | 45.84617 | 14.28338 | 13059 ft | 359 kts | 66° |
| 2026-05-06 21:45 | 45.85698 | 14.31557 | 12650 ft | 357 kts | 66° |
| 2026-05-06 21:45 | 45.86773 | 14.34758 | 12236 ft | 355 kts | 66° |
| 2026-05-06 21:45 | 45.87841 | 14.37938 | 11839 ft | 352 kts | 65° |
| 2026-05-06 21:46 | 45.88901 | 14.41097 | 11393 ft | 351 kts | 65° |
| 2026-05-06 21:46 | 45.89950 | 14.44227 | 10848 ft | 345 kts | 65° |
| 2026-05-06 21:46 | 45.90984 | 14.47309 | 10320 ft | 336 kts | 65° |
| 2026-05-06 21:46 | 45.91974 | 14.50259 | 9943 ft | 322 kts | 65° |
| 2026-05-06 21:47 | 45.92933 | 14.53132 | 9313 ft | 320 kts | 65° |
| 2026-05-06 21:47 | 45.93885 | 14.55992 | 8947 ft | 316 kts | 65° |
| 2026-05-06 21:47 | 45.94829 | 14.58825 | 8576 ft | 314 kts | 65° |
| 2026-05-06 21:47 | 45.95856 | 14.61587 | 8198 ft | 312 kts | 55° |
| 2026-05-06 21:48 | 45.97148 | 14.64076 | 7812 ft | 310 kts | 52° |
| 2026-05-06 21:48 | 45.98446 | 14.66545 | 7438 ft | 309 kts | 52° |
| 2026-05-06 21:48 | 45.99887 | 14.68802 | 7082 ft | 305 kts | 38° |
| 2026-05-06 21:48 | 46.01586 | 14.70606 | 6711 ft | 302 kts | 32° |
| 2026-05-06 21:49 | 46.03294 | 14.72349 | 6335 ft | 301 kts | 32° |
| 2026-05-06 21:49 | 46.05049 | 14.73820 | 6140 ft | 283 kts | 13° |
| 2026-05-06 21:49 | 46.06938 | 14.73934 | 5705 ft | 267 kts | 338° |
| 2026-05-06 21:49 | 46.08466 | 14.72681 | 5428 ft | 245 kts | 309° |
| 2026-05-06 21:50 | 46.09524 | 14.70833 | 5130 ft | 237 kts | 300° |
| 2026-05-06 21:50 | 46.10483 | 14.68908 | 4823 ft | 236 kts | 300° |
| 2026-05-06 21:50 | 46.11450 | 14.67009 | 4499 ft | 231 kts | 301° |
| 2026-05-06 21:50 | 46.12388 | 14.65193 | 4200 ft | 221 kts | 300° |
| 2026-05-06 21:51 | 46.13289 | 14.63445 | 3910 ft | 213 kts | 300° |
| 2026-05-06 21:51 | 46.14145 | 14.61787 | 3632 ft | 199 kts | 300° |
| 2026-05-06 21:51 | 46.14935 | 14.60255 | 3396 ft | 181 kts | 300° |
| 2026-05-06 21:51 | 46.15645 | 14.58878 | 3184 ft | 161 kts | 300° |
| 2026-05-06 21:52 | 46.16278 | 14.57647 | 2949 ft | 146 kts | 300° |
| 2026-05-06 21:52 | 46.16868 | 14.56495 | 2763 ft | 140 kts | 300° |
| 2026-05-06 21:52 | 46.17444 | 14.55371 | 2566 ft | 139 kts | 301° |
| 2026-05-06 21:52 | 46.18016 | 14.54255 | 2389 ft | 138 kts | 301° |
| 2026-05-06 21:53 | 46.18585 | 14.53144 | 2207 ft | 137 kts | 303° |
| 2026-05-06 21:53 | 46.19154 | 14.52037 | 2009 ft | 138 kts | 304° |
| 2026-05-06 21:53 | 46.19722 | 14.50928 | 1823 ft | 138 kts | 306° |
| 2026-05-06 21:53 | 46.20292 | 14.49817 | 1641 ft | 137 kts | 307° |
| 2026-05-06 21:54 | 46.20856 | 14.48707 | 1453 ft | 137 kts | 308° |
| 2026-05-06 21:54 | 46.21428 | 14.47602 | 1267 ft | 137 kts | 307° |
| 2026-05-06 21:54 | 46.21969 | 14.46543 | 1228 ft | 112 kts | 306° |
| 2026-05-06 21:54 | 46.22331 | 14.45836 | 1244 ft | 68 kts | 307° |
| 2026-05-06 21:55 | 46.22526 | 14.45484 | 1251 ft | 35 kts | 322° |
| 2026-05-06 21:55 | 46.22712 | 14.45346 | 1263 ft | 19 kts | 345° |
| 2026-05-06 21:55 | 46.22761 | 14.45330 | 1259 ft | 0 kts | 349° |
| 2026-05-06 21:56 | 46.22794 | 14.45321 | 1258 ft | 13 kts | 350° |
| 2026-05-06 21:56 | 46.22874 | 14.45347 | 1261 ft | 11 kts | 34° |
| 2026-05-06 21:56 | 46.22937 | 14.45406 | 1262 ft | 8 kts | 12° |
| 2026-05-06 21:56 | 46.22976 | 14.45375 | 1258 ft | 5 kts | 346° |
| 2026-05-06 21:57 | 46.23003 | 14.45394 | 1258 ft | 4 kts | 35° |
| 2026-05-06 21:57 | 46.23023 | 14.45416 | 1264 ft | 3 kts | 36° |
| 2026-05-06 21:57 | 46.23026 | 14.45419 | 1263 ft | 0 kts | 36° |